createdAt,value
2022-12-03T00:00:12.857Z,-1.30
2022-12-03T00:02:43.215Z,-1.30
2022-12-03T00:05:12.327Z,-1.30
2022-12-03T00:07:40.717Z,-1.40
2022-12-03T00:10:10.151Z,-1.40
2022-12-03T00:12:38.237Z,-1.30
2022-12-03T00:15:07.829Z,-1.40
2022-12-03T00:17:36.131Z,-1.40
2022-12-03T00:20:06.836Z,-1.30
2022-12-03T00:22:34.915Z,-1.30
2022-12-03T00:25:02.987Z,-1.40
2022-12-03T00:27:31.037Z,-1.30
2022-12-03T00:29:59.117Z,-1.30
2022-12-03T00:32:27.316Z,-1.30
2022-12-03T00:34:55.933Z,-1.30
2022-12-03T00:37:25.654Z,-1.30
2022-12-03T00:39:53.958Z,-1.30
2022-12-03T00:42:22.017Z,-1.30
2022-12-03T00:44:50.347Z,-1.30
2022-12-03T00:47:18.451Z,-1.30
2022-12-03T00:49:46.476Z,-1.20
2022-12-03T00:52:14.600Z,-1.20
2022-12-03T00:54:44.032Z,-1.20
2022-12-03T00:57:12.007Z,-1.30
2022-12-03T00:59:42.147Z,-1.30
2022-12-03T01:02:10.331Z,-1.30
2022-12-03T01:04:38.529Z,-1.30
2022-12-03T01:07:06.730Z,-1.30
2022-12-03T01:09:34.790Z,-1.20
2022-12-03T01:12:04.617Z,-1.30
2022-12-03T01:14:32.998Z,-1.20
2022-12-03T01:17:01.316Z,-1.20
2022-12-03T01:19:29.410Z,-1.30
2022-12-03T01:21:57.567Z,-1.20
2022-12-03T01:24:25.700Z,-1.20
2022-12-03T01:26:55.792Z,-1.20
2022-12-03T01:29:25.438Z,-1.20
2022-12-03T01:32:11.154Z,-1.20
2022-12-03T01:34:39.385Z,-1.20
2022-12-03T01:37:07.432Z,-1.20
2022-12-03T01:39:35.573Z,-1.10
2022-12-03T01:42:04.193Z,-1.20
2022-12-03T01:44:35.718Z,-1.20
2022-12-03T01:47:07.246Z,-1.20
2022-12-03T01:49:41.940Z,-1.20
2022-12-03T01:52:13.763Z,-1.20
2022-12-03T01:54:44.331Z,-1.20
2022-12-03T01:57:21.026Z,-1.20
2022-12-03T01:59:51.252Z,-1.20
2022-12-03T02:02:23.025Z,-1.20
2022-12-03T02:04:53.142Z,-1.20
2022-12-03T02:07:26.961Z,-1.20
2022-12-03T02:09:56.853Z,-1.20
2022-12-03T02:12:29.142Z,-1.20
2022-12-03T02:14:59.627Z,-1.20
2022-12-03T02:17:28.340Z,-1.30
2022-12-03T02:19:57.245Z,-1.30
2022-12-03T02:22:36.970Z,-1.30
2022-12-03T02:25:12.227Z,-1.30
2022-12-03T02:27:40.429Z,-1.20
2022-12-03T02:30:09.900Z,-1.30
2022-12-03T02:32:38.456Z,-1.30
2022-12-03T02:35:07.732Z,-1.30
2022-12-03T02:37:37.769Z,-1.30
2022-12-03T02:40:11.765Z,-1.30
2022-12-03T02:42:39.384Z,-1.30
2022-12-03T02:45:12.149Z,-1.30
2022-12-03T02:47:43.068Z,-1.30
2022-12-03T02:50:14.753Z,-1.30
2022-12-03T02:52:45.434Z,-1.30
2022-12-03T02:55:16.164Z,-1.20
2022-12-03T02:57:45.263Z,-1.20
2022-12-03T03:00:14.629Z,-1.20
2022-12-03T03:02:43.375Z,-1.20
2022-12-03T03:05:13.306Z,-1.20
2022-12-03T03:07:41.863Z,-1.20
2022-12-03T03:10:16.048Z,-1.20
2022-12-03T03:12:44.414Z,-1.20
2022-12-03T03:15:13.196Z,-1.20
2022-12-03T03:17:41.779Z,-1.20
2022-12-03T03:20:12.029Z,-1.30
2022-12-03T03:22:43.092Z,-1.30
2022-12-03T03:25:14.136Z,-1.30
2022-12-03T03:27:44.469Z,-1.30
2022-12-03T03:30:14.248Z,-1.30
2022-12-03T03:32:43.697Z,-1.20
2022-12-03T03:35:14.047Z,-1.30
2022-12-03T03:37:43.166Z,-1.20
2022-12-03T03:40:12.113Z,-1.30
2022-12-03T03:42:40.460Z,-1.30
2022-12-03T03:45:11.209Z,-1.30
2022-12-03T03:47:39.462Z,-1.30
2022-12-03T03:50:09.952Z,-1.30
2022-12-03T03:52:39.373Z,-1.30
2022-12-03T03:55:09.257Z,-1.20
2022-12-03T03:57:37.682Z,-1.20
2022-12-03T04:00:09.978Z,-1.20
2022-12-03T04:02:38.726Z,-1.20
2022-12-03T04:05:08.027Z,-1.20
2022-12-03T04:07:36.149Z,-1.20
2022-12-03T04:10:24.719Z,-1.20
2022-12-03T04:12:57.504Z,-1.20
2022-12-03T04:15:27.915Z,-1.20
2022-12-03T04:18:13.635Z,-1.20
2022-12-03T04:20:42.730Z,-1.10
2022-12-03T04:23:10.135Z,-1.10
2022-12-03T04:25:55.914Z,-1.10
2022-12-03T04:28:41.207Z,-1.10
2022-12-03T04:31:24.591Z,-1.20
2022-12-03T04:34:10.565Z,-1.10
2022-12-03T04:36:38.493Z,-1.20
2022-12-03T04:39:07.083Z,-1.20
2022-12-03T04:41:35.133Z,-1.20
2022-12-03T04:44:20.689Z,-1.10
2022-12-03T04:46:50.159Z,-1.10
2022-12-03T04:49:18.395Z,-1.10
2022-12-03T04:51:46.470Z,-1.10
2022-12-03T04:54:14.684Z,-1.20
2022-12-03T04:56:42.774Z,-1.20
2022-12-03T04:59:15.978Z,-1.20
2022-12-03T05:01:44.875Z,-1.20
2022-12-03T05:04:15.818Z,-1.20
2022-12-03T05:06:44.519Z,-1.20
2022-12-03T05:09:12.947Z,-1.20
2022-12-03T05:11:41.470Z,-1.20
2022-12-03T05:14:09.709Z,-1.30
2022-12-03T05:16:38.198Z,-1.30
2022-12-03T05:19:08.985Z,-1.20
2022-12-03T05:21:37.676Z,-1.20
2022-12-03T05:24:07.066Z,-1.20
2022-12-03T05:26:35.152Z,-1.20
2022-12-03T05:29:03.301Z,-1.30
2022-12-03T05:31:31.447Z,-1.30
2022-12-03T05:33:59.681Z,-1.30
2022-12-03T05:36:27.876Z,-1.30
2022-12-03T05:38:57.747Z,-1.30
2022-12-03T05:41:43.038Z,-1.40
2022-12-03T05:44:12.438Z,-1.40
2022-12-03T05:46:44.002Z,-1.40
2022-12-03T05:49:12.455Z,-1.40
2022-12-03T05:51:40.617Z,-1.40
2022-12-03T05:54:10.148Z,-1.40
2022-12-03T05:56:38.304Z,-1.30
2022-12-03T05:59:06.356Z,-1.40
2022-12-03T06:01:34.477Z,-1.40
2022-12-03T06:04:02.572Z,-1.40
2022-12-03T06:06:30.739Z,-1.40
2022-12-03T06:08:59.054Z,-1.40
2022-12-03T06:11:30.366Z,-1.40
2022-12-03T06:13:58.713Z,-1.30
2022-12-03T06:16:27.158Z,-1.30
2022-12-03T06:18:55.535Z,-1.30
2022-12-03T06:21:23.847Z,-1.30
2022-12-03T06:23:51.986Z,-1.30
2022-12-03T06:26:20.271Z,-1.30
2022-12-03T06:28:49.672Z,-1.30
2022-12-03T06:31:17.736Z,-1.30
2022-12-03T06:33:45.940Z,-1.30
2022-12-03T06:36:15.840Z,-1.30
2022-12-03T06:38:46.936Z,-1.20
2022-12-03T06:41:14.948Z,-1.20
2022-12-03T06:43:43.259Z,-1.20
2022-12-03T06:46:12.828Z,-1.30
2022-12-03T06:48:41.427Z,-1.20
2022-12-03T06:51:09.536Z,-1.20
2022-12-03T06:53:37.833Z,-1.20
2022-12-03T06:56:06.686Z,-1.20
2022-12-03T06:58:35.019Z,-1.20
2022-12-03T07:01:03.393Z,-1.20
2022-12-03T07:03:32.899Z,-1.20
2022-12-03T07:06:01.026Z,-1.20
2022-12-03T07:08:29.421Z,-1.20
2022-12-03T07:10:57.468Z,-1.20
2022-12-03T07:13:25.517Z,-1.20
2022-12-03T07:15:53.627Z,-1.20
2022-12-03T07:18:21.711Z,-1.10
2022-12-03T07:20:51.324Z,-1.10
2022-12-03T07:23:21.229Z,-1.00
2022-12-03T07:25:49.538Z,-1.00
2022-12-03T07:28:17.549Z,-1.00
2022-12-03T07:30:45.624Z,-1.00
2022-12-03T07:33:13.799Z,-0.90
2022-12-03T07:35:41.881Z,-0.90
2022-12-03T07:38:11.284Z,-0.90
2022-12-03T07:40:39.296Z,-0.90
2022-12-03T07:43:07.536Z,-0.90
2022-12-03T07:45:35.532Z,-0.90
2022-12-03T07:48:03.607Z,-0.90
2022-12-03T07:50:31.995Z,-0.90
2022-12-03T07:53:00.384Z,-0.80
2022-12-03T07:55:29.867Z,-0.80
2022-12-03T07:57:58.204Z,-0.80
2022-12-03T08:00:26.783Z,-0.70
2022-12-03T08:02:54.935Z,-0.60
2022-12-03T08:05:23.133Z,-0.60
2022-12-03T08:07:51.292Z,-0.50
2022-12-03T08:10:19.966Z,-0.40
2022-12-03T08:12:49.486Z,-0.40
2022-12-03T08:15:20.429Z,-0.30
2022-12-03T08:17:52.772Z,-0.30
2022-12-03T08:20:23.100Z,-0.30
2022-12-03T08:22:52.856Z,-0.20
2022-12-03T08:25:23.828Z,0.00
2022-12-03T08:27:57.759Z,0.10
2022-12-03T08:30:25.861Z,0.20
2022-12-03T08:32:54.898Z,0.30
2022-12-03T08:35:25.195Z,0.40
2022-12-03T08:38:01.926Z,0.40
2022-12-03T08:40:35.672Z,0.40
2022-12-03T08:43:10.509Z,0.40
2022-12-03T08:45:41.788Z,0.50
2022-12-03T08:48:27.729Z,0.40
2022-12-03T08:50:57.963Z,0.50
2022-12-03T08:53:32.656Z,0.50
2022-12-03T08:56:02.494Z,0.50
2022-12-03T08:58:40.421Z,0.70
2022-12-03T09:01:31.801Z,0.60
2022-12-03T09:04:15.001Z,0.60
2022-12-03T09:06:43.311Z,0.50
2022-12-03T09:09:11.441Z,0.60
2022-12-03T09:11:39.627Z,0.60
2022-12-03T09:14:12.502Z,0.60
2022-12-03T09:16:43.174Z,0.60
2022-12-03T09:19:11.291Z,0.60
2022-12-03T09:21:39.557Z,0.60
2022-12-03T09:24:08.122Z,0.60
2022-12-03T09:26:36.419Z,0.70
2022-12-03T09:29:10.468Z,0.70
2022-12-03T09:31:41.524Z,0.80
2022-12-03T09:34:10.288Z,0.90
2022-12-03T09:36:38.612Z,1.00
2022-12-03T09:39:06.800Z,1.10
2022-12-03T09:41:34.991Z,1.10
2022-12-03T09:44:04.724Z,1.30
2022-12-03T09:46:35.834Z,1.30
2022-12-03T09:49:13.906Z,1.30
2022-12-03T09:51:45.968Z,1.00
2022-12-03T09:54:24.367Z,1.20
2022-12-03T09:56:52.921Z,1.20
2022-12-03T09:59:25.733Z,1.30
2022-12-03T10:01:54.613Z,1.20
2022-12-03T10:04:24.548Z,1.30
2022-12-03T10:06:52.916Z,1.30
2022-12-03T10:09:26.030Z,1.30
2022-12-03T10:11:54.358Z,1.30
2022-12-03T10:14:22.450Z,1.50
2022-12-03T10:16:50.763Z,1.50
2022-12-03T10:19:24.238Z,1.60
2022-12-03T10:21:53.888Z,1.70
2022-12-03T10:24:25.712Z,1.90
2022-12-03T10:26:56.008Z,1.90
2022-12-03T10:29:32.898Z,2.10
2022-12-03T10:32:02.956Z,2.20
2022-12-03T10:34:32.978Z,2.20
2022-12-03T10:37:14.623Z,2.00
2022-12-03T10:39:58.187Z,1.90
2022-12-03T10:42:27.784Z,1.80
2022-12-03T10:45:13.418Z,1.90
2022-12-03T10:47:41.785Z,2.00
2022-12-03T10:50:17.972Z,2.00
2022-12-03T10:52:48.015Z,2.00
2022-12-03T10:55:17.133Z,2.10
2022-12-03T10:57:47.128Z,2.10
2022-12-03T11:00:18.431Z,2.00
2022-12-03T11:02:54.666Z,1.80
2022-12-03T11:05:28.133Z,1.80
2022-12-03T11:07:58.091Z,2.00
2022-12-03T11:10:26.745Z,2.00
2022-12-03T11:13:29.770Z,1.80
2022-12-03T11:15:59.390Z,1.70
2022-12-03T11:19:03.301Z,1.60
2022-12-03T11:21:31.724Z,1.50
2022-12-03T11:24:19.402Z,1.50
2022-12-03T11:27:17.997Z,1.50
2022-12-03T11:29:55.121Z,1.40
2022-12-03T11:33:09.089Z,1.50
2022-12-03T11:35:56.135Z,1.30
2022-12-03T11:38:52.216Z,1.20
2022-12-03T11:41:27.829Z,1.20
2022-12-03T11:44:21.683Z,1.20
2022-12-03T11:46:49.973Z,1.20
2022-12-03T11:49:42.413Z,1.20
2022-12-03T11:52:25.140Z,1.00
2022-12-03T11:54:57.957Z,1.00
2022-12-03T11:57:39.984Z,1.00
2022-12-03T12:00:19.781Z,1.20
2022-12-03T12:02:54.237Z,1.20
2022-12-03T12:05:33.530Z,1.20
2022-12-03T12:08:03.504Z,1.20
2022-12-03T12:10:47.776Z,1.20
2022-12-03T12:13:52.758Z,1.30
2022-12-03T12:16:50.427Z,1.20
2022-12-03T12:19:37.058Z,1.10
2022-12-03T12:22:19.807Z,1.00
2022-12-03T12:24:51.644Z,1.00
2022-12-03T12:27:21.981Z,1.00
2022-12-03T12:29:56.312Z,1.00
2022-12-03T12:32:28.407Z,1.00
2022-12-03T12:35:00.515Z,0.90
2022-12-03T12:37:34.600Z,1.00
2022-12-03T12:40:07.482Z,0.90
2022-12-03T12:42:37.130Z,0.80
2022-12-03T12:45:17.799Z,0.80
2022-12-03T12:47:51.387Z,0.80
2022-12-03T12:50:20.886Z,0.80
2022-12-03T12:52:52.769Z,0.80
2022-12-03T12:55:21.319Z,0.80
2022-12-03T12:57:49.360Z,0.90
2022-12-03T13:00:20.763Z,0.90
2022-12-03T13:02:58.072Z,0.90
2022-12-03T13:05:27.988Z,0.80
2022-12-03T13:07:56.917Z,0.80
2022-12-03T13:10:42.064Z,0.80
2022-12-03T13:13:54.668Z,0.80
2022-12-03T13:16:27.554Z,0.80
2022-12-03T13:18:58.815Z,0.90
2022-12-03T13:21:36.117Z,0.90
2022-12-03T13:24:26.895Z,0.90
2022-12-03T13:26:55.022Z,0.90
2022-12-03T13:29:24.405Z,0.90
2022-12-03T13:31:55.281Z,0.90
2022-12-03T13:34:26.958Z,0.80
2022-12-03T13:36:58.600Z,0.80
2022-12-03T13:39:32.815Z,0.80
2022-12-03T13:42:42.184Z,0.80
2022-12-03T13:45:36.450Z,0.80
2022-12-03T13:48:16.222Z,0.70
2022-12-03T13:50:46.525Z,0.70
2022-12-03T13:53:22.127Z,0.70
2022-12-03T13:55:52.055Z,0.70
2022-12-03T13:58:20.293Z,0.60
2022-12-03T14:00:49.879Z,0.60
2022-12-03T14:03:18.112Z,0.70
2022-12-03T14:05:48.054Z,0.80
2022-12-03T14:08:16.666Z,0.80
2022-12-03T14:10:44.865Z,0.80
2022-12-03T14:13:13.076Z,0.70
2022-12-03T14:15:41.201Z,0.70
2022-12-03T14:18:11.661Z,0.70
2022-12-03T14:20:39.884Z,0.60
2022-12-03T14:23:09.737Z,0.60
2022-12-03T14:25:38.174Z,0.60
2022-12-03T14:28:08.790Z,0.50
2022-12-03T14:30:37.177Z,0.50
2022-12-03T14:33:05.458Z,0.50
2022-12-03T14:35:33.911Z,0.50
2022-12-03T14:38:02.983Z,0.50
2022-12-03T14:40:33.765Z,0.50
2022-12-03T14:43:03.284Z,0.50
2022-12-03T14:45:31.841Z,0.40
2022-12-03T14:48:00.288Z,0.40
2022-12-03T14:50:28.561Z,0.40
2022-12-03T14:52:57.011Z,0.50
2022-12-03T14:55:25.338Z,0.40
2022-12-03T14:57:54.925Z,0.30
2022-12-03T15:00:23.749Z,0.30
2022-12-03T15:02:52.043Z,0.30
2022-12-03T15:05:27.983Z,0.20
2022-12-03T15:07:57.218Z,0.20
2022-12-03T15:10:25.626Z,0.20
2022-12-03T15:12:55.792Z,0.20
2022-12-03T15:15:24.398Z,0.30
2022-12-03T15:17:52.713Z,0.20
2022-12-03T15:20:21.035Z,0.20
2022-12-03T15:22:49.250Z,0.20
2022-12-03T15:25:24.350Z,0.20
2022-12-03T15:27:54.629Z,0.20
2022-12-03T15:30:22.931Z,0.20
2022-12-03T15:32:51.133Z,0.20
2022-12-03T15:35:19.340Z,0.20
2022-12-03T15:37:47.550Z,0.20
2022-12-03T15:40:16.355Z,0.20
2022-12-03T15:42:44.521Z,0.30
2022-12-03T15:45:15.567Z,0.20
2022-12-03T15:47:43.975Z,0.20
2022-12-03T15:50:13.258Z,0.20
2022-12-03T15:52:41.914Z,0.20
2022-12-03T15:55:10.877Z,0.20
2022-12-03T15:57:39.470Z,0.20
2022-12-03T16:00:10.150Z,0.20
2022-12-03T16:02:45.145Z,0.30
2022-12-03T16:05:17.328Z,0.30
2022-12-03T16:07:45.699Z,0.30
2022-12-03T16:10:14.001Z,0.30
2022-12-03T16:12:42.054Z,0.30
2022-12-03T16:15:10.852Z,0.30
2022-12-03T16:17:38.874Z,0.30
2022-12-03T16:20:09.746Z,0.30
2022-12-03T16:22:37.936Z,0.20
2022-12-03T16:25:07.206Z,0.30
2022-12-03T16:27:37.042Z,0.20
2022-12-03T16:30:06.806Z,0.20
2022-12-03T16:32:35.005Z,0.20
2022-12-03T16:35:04.686Z,0.20
2022-12-03T16:37:34.171Z,0.20
2022-12-03T16:40:02.833Z,0.20
2022-12-03T16:42:31.059Z,0.20
2022-12-03T16:45:16.432Z,0.20
2022-12-03T16:47:44.766Z,0.20
2022-12-03T16:50:20.670Z,0.20
2022-12-03T16:52:54.186Z,0.20
2022-12-03T16:55:22.294Z,0.20
2022-12-03T16:57:50.431Z,0.10
2022-12-03T17:00:21.664Z,0.20
2022-12-03T17:02:49.881Z,0.20
2022-12-03T17:05:18.116Z,0.20
2022-12-03T17:07:46.376Z,0.20
2022-12-03T17:10:16.123Z,0.20
2022-12-03T17:13:08.307Z,0.30
2022-12-03T17:15:32.695Z,0.20
2022-12-03T17:18:01.022Z,0.30
2022-12-03T17:20:29.115Z,0.20
2022-12-03T17:22:58.051Z,0.20
2022-12-03T17:25:28.236Z,0.20
2022-12-03T17:27:56.367Z,0.20
2022-12-03T17:30:24.504Z,0.20
2022-12-03T17:32:52.583Z,0.20
2022-12-03T17:35:20.958Z,0.10
2022-12-03T17:37:49.022Z,0.10
2022-12-03T17:40:18.767Z,0.10
2022-12-03T17:42:48.269Z,0.20
2022-12-03T17:45:16.527Z,0.30
2022-12-03T17:47:44.686Z,0.20
2022-12-03T17:50:13.355Z,0.10
2022-12-03T17:52:41.432Z,0.10
2022-12-03T17:55:13.995Z,0.10
2022-12-03T17:57:47.496Z,0.10
2022-12-03T18:00:16.038Z,0.10
2022-12-03T18:02:44.205Z,0.10
2022-12-03T18:05:13.503Z,0.20
2022-12-03T18:07:41.793Z,0.20
2022-12-03T18:10:10.350Z,0.30
2022-12-03T18:12:38.451Z,0.20
2022-12-03T18:15:09.368Z,0.20
2022-12-03T18:17:37.541Z,0.20
2022-12-03T18:20:06.935Z,0.20
2022-12-03T18:22:36.700Z,0.20
2022-12-03T18:25:05.988Z,0.20
2022-12-03T18:27:34.375Z,0.20
2022-12-03T18:30:57.451Z,0.20
2022-12-03T18:33:27.714Z,0.10
2022-12-03T18:35:58.862Z,0.20
2022-12-03T18:38:30.364Z,0.20
2022-12-03T18:40:58.801Z,0.20
2022-12-03T18:43:28.869Z,0.30
2022-12-03T18:45:58.248Z,0.30
2022-12-03T18:48:27.821Z,0.30
2022-12-03T18:50:56.548Z,0.30
2022-12-03T18:53:24.670Z,0.20
2022-12-03T18:55:52.805Z,0.30
2022-12-03T18:58:20.898Z,0.30
2022-12-03T19:00:49.111Z,0.30
2022-12-03T19:03:17.335Z,0.30
2022-12-03T19:05:46.955Z,0.30
2022-12-03T19:08:15.302Z,0.30
2022-12-03T19:10:44.297Z,0.20
2022-12-03T19:13:12.914Z,0.20
2022-12-03T19:15:41.568Z,0.20
2022-12-03T19:18:09.727Z,0.20
2022-12-03T19:20:41.889Z,0.20
2022-12-03T19:23:11.607Z,0.20
2022-12-03T19:25:39.716Z,0.20
2022-12-03T19:28:07.830Z,0.30
2022-12-03T19:30:37.002Z,0.30
2022-12-03T19:33:05.182Z,0.40
2022-12-03T19:35:33.563Z,0.30
2022-12-03T19:38:01.685Z,0.30
2022-12-03T19:40:32.195Z,0.40
2022-12-03T19:43:00.392Z,0.40
2022-12-03T19:45:28.572Z,0.50
2022-12-03T19:47:56.762Z,0.50
2022-12-03T19:50:24.979Z,0.50
2022-12-03T19:52:53.209Z,0.50
2022-12-03T19:55:21.468Z,0.40
2022-12-03T19:57:51.253Z,0.40
2022-12-03T20:00:19.709Z,0.40
2022-12-03T20:02:49.906Z,0.40
2022-12-03T20:05:18.418Z,0.40
2022-12-03T20:07:46.935Z,0.40
2022-12-03T20:10:15.151Z,0.50
2022-12-03T20:12:43.407Z,0.50
2022-12-03T20:15:14.036Z,0.50
2022-12-03T20:17:42.218Z,0.50
2022-12-03T20:20:11.266Z,0.50
2022-12-03T20:22:39.291Z,0.50
2022-12-03T20:25:08.475Z,0.50
2022-12-03T20:27:36.936Z,0.50
2022-12-03T20:30:06.019Z,0.50
2022-12-03T20:32:39.382Z,0.50
2022-12-03T20:35:12.053Z,0.50
2022-12-03T20:37:40.103Z,0.60
2022-12-03T20:40:09.535Z,0.60
2022-12-03T20:42:37.688Z,0.50
2022-12-03T20:45:06.422Z,0.60
2022-12-03T20:47:35.988Z,0.50
2022-12-03T20:50:04.124Z,0.60
2022-12-03T20:52:32.392Z,0.60
2022-12-03T20:55:00.519Z,0.60
2022-12-03T20:57:28.564Z,0.50
2022-12-03T20:59:56.929Z,0.50
2022-12-03T21:02:25.155Z,0.40
2022-12-03T21:04:55.080Z,0.50
2022-12-03T21:07:23.137Z,0.50
2022-12-03T21:09:51.267Z,0.60
2022-12-03T21:12:19.400Z,0.50
2022-12-03T21:14:47.513Z,0.70
2022-12-03T21:17:15.667Z,0.60
2022-12-03T21:19:43.793Z,0.50
2022-12-03T21:22:13.287Z,0.60
2022-12-03T21:24:42.843Z,0.70
2022-12-03T21:27:10.917Z,0.60
2022-12-03T21:29:39.090Z,0.60
2022-12-03T21:32:07.343Z,0.60
2022-12-03T21:34:36.534Z,0.70
2022-12-03T21:37:05.422Z,0.60
2022-12-03T21:39:34.997Z,0.70
2022-12-03T21:42:34.778Z,0.70
2022-12-03T21:44:51.385Z,0.70
2022-12-03T21:47:19.691Z,0.80
2022-12-03T21:49:47.845Z,0.70
2022-12-03T21:52:42.172Z,0.60
2022-12-03T21:55:12.015Z,0.60
2022-12-03T21:57:40.262Z,0.70
2022-12-03T22:00:09.861Z,0.70
2022-12-03T22:02:41.149Z,0.80
2022-12-03T22:05:10.471Z,0.70
2022-12-03T22:07:39.906Z,0.60
2022-12-03T22:10:14.018Z,0.60
2022-12-03T22:12:42.234Z,0.80
2022-12-03T22:15:18.143Z,0.70
2022-12-03T22:17:47.070Z,0.90
2022-12-03T22:20:15.242Z,0.90
2022-12-03T22:22:43.327Z,0.90
2022-12-03T22:25:11.613Z,0.80
2022-12-03T22:27:41.230Z,0.80
2022-12-03T22:30:10.341Z,0.80
2022-12-03T22:32:38.620Z,0.70
2022-12-03T22:35:07.586Z,0.70
2022-12-03T22:37:35.721Z,0.70
2022-12-03T22:40:04.774Z,0.60
2022-12-03T22:42:32.886Z,0.70
2022-12-03T22:45:02.404Z,0.80
2022-12-03T22:47:30.541Z,0.80
2022-12-03T22:49:58.707Z,0.80
2022-12-03T22:52:26.837Z,0.80
2022-12-03T22:54:55.059Z,0.80
2022-12-03T22:57:23.228Z,0.80
2022-12-03T22:59:51.272Z,0.70
2022-12-03T23:02:20.817Z,0.80
2022-12-03T23:04:48.903Z,0.80
2022-12-03T23:07:16.953Z,0.70
2022-12-03T23:09:44.986Z,0.80
2022-12-03T23:12:14.654Z,0.70
2022-12-03T23:14:42.815Z,0.80
2022-12-03T23:17:10.786Z,0.80
2022-12-03T23:19:40.200Z,0.80
2022-12-03T23:22:08.191Z,0.80
2022-12-03T23:24:37.197Z,0.80
2022-12-03T23:27:05.485Z,0.80
2022-12-03T23:29:36.080Z,1.10
2022-12-03T23:32:04.375Z,1.10
2022-12-03T23:34:32.525Z,1.00
2022-12-03T23:37:02.137Z,1.00
2022-12-03T23:39:30.300Z,1.00
2022-12-03T23:41:58.522Z,1.00
2022-12-03T23:44:28.604Z,1.00
2022-12-03T23:46:57.015Z,1.10
2022-12-03T23:49:25.166Z,1.10
2022-12-03T23:51:53.278Z,1.20
2022-12-03T23:54:23.344Z,1.10
2022-12-03T23:56:51.693Z,1.30
2022-12-03T23:59:19.912Z,1.30
